LEVD/VLL METAR and TAF weather

Enter ICAO airport designator
Station Type Date Time Source
LEVD METAR 2019/10/20 19:30 UTC NOAA

LEVD 201930Z 18004KT 9999 FEW032 SCT046 07/06 Q1015


Station Type Date Time Source
LEVD Decoded METAR 2019/10/20 19:30 UTC NOAA

Valladolid / Villanubla, Spain (LEVD) 41-43N 004-51W 846M
Oct 20, 2019 - 03:30 PM EDT / 2019.10.20 1930 UTC
Wind: from the S (180 degrees) at 5 MPH (4 KT):0
Visibility: greater than 7 mile(s):0
Sky conditions: partly cloudy
Temperature: 44 F (7 C)
Dew Point: 42 F (6 C)
Relative Humidity: 93%
Pressure (altimeter): 29.97 in. Hg (1015 hPa)
ob: LEVD 201930Z 18004KT 9999 FEW032 SCT046 07/06 Q1015
cycle: 19

Station Type Date Time Source
LEVD TAF 2019/10/20 18:29 UTC NOAA

TAF LEVD 201700Z 2018/2118 20005KT 9999 FEW020 BKN030 TX13/2115Z TN02/2106Z PROB30
TEMPO 2018/2022 4000 RA BKN009 SCT025CB
TEMPO 2101/2111 2500 BR
TEMPO 2101/2110 0300 FG OVC001

Example: see airport list